createdAt,value
2022-11-18T00:01:17.943Z,98106.44
2022-11-18T00:03:46.352Z,98107.38
2022-11-18T00:06:16.909Z,98103.91
2022-11-18T00:08:44.603Z,98110.56
2022-11-18T00:11:14.929Z,98111.03
2022-11-18T00:13:42.564Z,98107.75
2022-11-18T00:16:12.113Z,98107.91
2022-11-18T00:18:40.002Z,98102.25
2022-11-18T00:21:11.999Z,98088.91
2022-11-18T00:23:40.466Z,98092.03
2022-11-18T00:26:11.368Z,98087.94
2022-11-18T00:28:39.992Z,98082.78
2022-11-18T00:31:13.042Z,98085.25
2022-11-18T00:33:41.123Z,98090.63
2022-11-18T00:36:11.431Z,98099.75
2022-11-18T00:38:45.839Z,98092.84
2022-11-18T00:41:15.722Z,98086.72
2022-11-18T00:43:43.336Z,98083.06
2022-11-18T00:46:12.069Z,98083.53
2022-11-18T00:48:40.616Z,98077.91
2022-11-18T00:51:15.345Z,98083.56
2022-11-18T00:53:43.806Z,98081.03
2022-11-18T00:56:11.847Z,98066.41
2022-11-18T00:58:39.496Z,98061.69
2022-11-18T01:01:07.460Z,98053.06
2022-11-18T01:03:35.229Z,98056.22
2022-11-18T01:06:03.177Z,98062.81
2022-11-18T01:08:31.184Z,98070.66
2022-11-18T01:10:58.817Z,98070.78
2022-11-18T01:13:26.468Z,98072.69
2022-11-18T01:15:58.282Z,98079.91
2022-11-18T01:18:28.023Z,98073.25
2022-11-18T01:21:00.287Z,98075.78
2022-11-18T01:23:27.974Z,98068.53
2022-11-18T01:25:56.063Z,98067.75
2022-11-18T01:28:24.319Z,98069.78
2022-11-18T01:30:52.007Z,98067.81
2022-11-18T01:33:20.218Z,98072.37
2022-11-18T01:35:47.960Z,98056.81
2022-11-18T01:38:15.551Z,98047.41
2022-11-18T01:40:43.484Z,98041.75
2022-11-18T01:43:13.510Z,98049.59
2022-11-18T01:45:42.694Z,98060.25
2022-11-18T01:48:29.714Z,98048.19
2022-11-18T01:51:11.702Z,98060.44
2022-11-18T01:53:43.493Z,98054.16
2022-11-18T01:56:15.115Z,98053.53
2022-11-18T01:58:50.352Z,98048.66
2022-11-18T02:01:18.621Z,98044.41
2022-11-18T02:03:46.835Z,98035.63
2022-11-18T02:06:15.017Z,98046.94
2022-11-18T02:08:43.282Z,98056.84
2022-11-18T02:11:15.464Z,98067.84
2022-11-18T02:13:43.493Z,98072.37
2022-11-18T02:16:20.805Z,98075.69
2022-11-18T02:18:59.463Z,98076.31
2022-11-18T02:21:30.115Z,98072.56
2022-11-18T02:24:10.247Z,98059.03
2022-11-18T02:26:46.247Z,98052.41
2022-11-18T02:29:44.370Z,98044.38
2022-11-18T02:32:19.288Z,98046.28
2022-11-18T02:34:47.116Z,98050.34
2022-11-18T02:37:22.138Z,98056.81
2022-11-18T02:40:03.742Z,98056.16
2022-11-18T02:42:33.212Z,98045.62
2022-11-18T02:45:06.219Z,98039.34
2022-11-18T02:47:34.947Z,98040.75
2022-11-18T02:50:06.199Z,98022.47
2022-11-18T02:52:36.270Z,98023.50
2022-11-18T02:55:08.807Z,98002.03
2022-11-18T02:57:37.780Z,98009.13
2022-11-18T03:00:06.471Z,98001.78
2022-11-18T03:02:49.045Z,98005.69
2022-11-18T03:05:22.163Z,98008.84
2022-11-18T03:07:55.263Z,98006.81
2022-11-18T03:10:25.678Z,98006.31
2022-11-18T03:12:59.275Z,97999.25
2022-11-18T03:15:45.906Z,97996.44
2022-11-18T03:18:25.939Z,97994.88
2022-11-18T03:20:59.100Z,97993.62
2022-11-18T03:23:55.311Z,98001.97
2022-11-18T03:26:36.495Z,98002.38
2022-11-18T03:29:09.700Z,97997.53
2022-11-18T03:31:42.716Z,98007.28
2022-11-18T03:34:27.190Z,98012.03
2022-11-18T03:37:00.690Z,98017.22
2022-11-18T03:39:30.426Z,98009.97
2022-11-18T03:42:07.276Z,98002.94
2022-11-18T03:44:37.661Z,97993.97
2022-11-18T03:47:10.492Z,97995.22
2022-11-18T03:49:45.226Z,97993.00
2022-11-18T03:52:20.504Z,97992.22
2022-11-18T03:54:50.390Z,97994.59
2022-11-18T03:57:30.521Z,97994.59
2022-11-18T04:00:06.861Z,97998.34
2022-11-18T04:02:35.130Z,97998.97
2022-11-18T04:05:04.531Z,98004.81
2022-11-18T04:07:53.525Z,98004.78
2022-11-18T04:10:31.770Z,97989.09
2022-11-18T04:13:06.712Z,97990.50
2022-11-18T04:15:39.548Z,97991.28
2022-11-18T04:18:07.638Z,97994.44
2022-11-18T04:20:35.867Z,97988.31
2022-11-18T04:23:05.027Z,97981.41
2022-11-18T04:25:37.882Z,97985.31
2022-11-18T04:28:06.145Z,97979.66
2022-11-18T04:30:33.763Z,97972.56
2022-11-18T04:33:01.491Z,97969.91
2022-11-18T04:35:29.511Z,97972.91
2022-11-18T04:37:57.167Z,97966.78
2022-11-18T04:40:24.855Z,97957.81
2022-11-18T04:42:52.711Z,97959.41
2022-11-18T04:45:20.311Z,97955.00
2022-11-18T04:47:47.990Z,97948.38
2022-11-18T04:50:16.610Z,97946.50
2022-11-18T04:52:44.195Z,97948.72
2022-11-18T04:55:11.939Z,97966.47
2022-11-18T04:57:39.951Z,97967.72
2022-11-18T05:00:08.096Z,97965.81
2022-11-18T05:02:35.638Z,97971.94
2022-11-18T05:05:04.029Z,97975.44
2022-11-18T05:07:31.894Z,97984.22
2022-11-18T05:09:59.651Z,97991.91
2022-11-18T05:12:28.707Z,98004.47
2022-11-18T05:14:56.302Z,97991.47
2022-11-18T05:17:23.903Z,97990.19
2022-11-18T05:19:51.903Z,98000.41
2022-11-18T05:22:19.608Z,97982.34
2022-11-18T05:24:47.415Z,97986.41
2022-11-18T05:27:15.620Z,97969.94
2022-11-18T05:29:43.536Z,97965.81
2022-11-18T05:32:11.201Z,97971.50
2022-11-18T05:34:40.716Z,97982.63
2022-11-18T05:37:08.571Z,97983.59
2022-11-18T05:39:36.618Z,97976.69
2022-11-18T05:42:04.920Z,97973.06
2022-11-18T05:44:32.679Z,97972.91
2022-11-18T05:47:00.414Z,97970.38
2022-11-18T05:49:28.314Z,97977.16
2022-11-18T05:51:55.961Z,97971.97
2022-11-18T05:54:23.662Z,97967.41
2022-11-18T05:56:51.586Z,97961.13
2022-11-18T05:59:19.654Z,97964.25
2022-11-18T06:01:50.271Z,97973.84
2022-11-18T06:04:18.058Z,97975.25
2022-11-18T06:06:46.259Z,97965.69
2022-11-18T06:09:17.093Z,97960.03
2022-11-18T06:11:45.689Z,97958.63
2022-11-18T06:14:39.186Z,97963.66
2022-11-18T06:17:11.235Z,97966.47
2022-11-18T06:19:39.270Z,97983.25
2022-11-18T06:22:07.677Z,97988.78
2022-11-18T06:24:35.628Z,97973.37
2022-11-18T06:27:03.448Z,97981.37
2022-11-18T06:29:31.486Z,97974.03
2022-11-18T06:31:59.151Z,97974.16
2022-11-18T06:34:26.820Z,97957.66
2022-11-18T06:36:54.768Z,97961.13
2022-11-18T06:39:22.490Z,97962.72
2022-11-18T06:41:52.887Z,97959.88
2022-11-18T06:44:20.865Z,97957.69
2022-11-18T06:46:48.553Z,97958.78
2022-11-18T06:49:16.715Z,97944.13
2022-11-18T06:51:44.773Z,97949.19
2022-11-18T06:54:12.581Z,97955.94
2022-11-18T06:56:40.323Z,97967.72
2022-11-18T06:59:09.987Z,97967.88
2022-11-18T07:01:39.647Z,97968.84
2022-11-18T07:04:08.429Z,97966.94
2022-11-18T07:06:37.288Z,97967.56
2022-11-18T07:09:07.119Z,97968.66
2022-11-18T07:11:35.129Z,97975.72
2022-11-18T07:14:03.324Z,97960.81
2022-11-18T07:16:30.982Z,97968.97
2022-11-18T07:18:58.680Z,97964.41
2022-11-18T07:21:28.171Z,97963.81
2022-11-18T07:23:56.474Z,97962.69
2022-11-18T07:26:24.117Z,97968.97
2022-11-18T07:28:52.078Z,97964.09
2022-11-18T07:31:20.702Z,97957.34
2022-11-18T07:33:48.784Z,97954.38
2022-11-18T07:36:21.444Z,97944.44
2022-11-18T07:38:49.416Z,97951.06
2022-11-18T07:41:21.541Z,97948.84
2022-11-18T07:43:50.431Z,97953.25
2022-11-18T07:46:31.654Z,97948.66
2022-11-18T07:49:00.988Z,97941.91
2022-11-18T07:51:31.908Z,97936.59
2022-11-18T07:53:59.562Z,97928.84
2022-11-18T07:56:27.540Z,97918.34
2022-11-18T07:58:55.965Z,97908.28
2022-11-18T08:01:25.516Z,97912.06
2022-11-18T08:03:53.465Z,97897.91
2022-11-18T08:06:21.112Z,97900.28
2022-11-18T08:08:49.284Z,97897.25
2022-11-18T08:11:22.631Z,97903.88
2022-11-18T08:13:51.871Z,97902.44
2022-11-18T08:16:22.891Z,97909.34
2022-11-18T08:18:51.005Z,97908.88
2022-11-18T08:21:20.440Z,97914.06
2022-11-18T08:23:57.795Z,97917.81
2022-11-18T08:26:26.243Z,97920.53
2022-11-18T08:28:54.104Z,97928.63
2022-11-18T08:31:23.603Z,97923.62
2022-11-18T08:34:02.788Z,97924.56
2022-11-18T08:36:33.187Z,97931.22
2022-11-18T08:39:02.722Z,97935.00
2022-11-18T08:41:40.012Z,97939.97
2022-11-18T08:44:11.517Z,97940.34
2022-11-18T08:46:39.239Z,97923.25
2022-11-18T08:49:06.863Z,97924.84
2022-11-18T08:51:34.783Z,97918.66
2022-11-18T08:54:02.479Z,97915.34
2022-11-18T08:56:30.119Z,97914.53
2022-11-18T08:58:58.130Z,97904.00
2022-11-18T09:01:25.801Z,97908.53
2022-11-18T09:03:55.471Z,97910.13
2022-11-18T09:06:23.564Z,97905.44
2022-11-18T09:08:51.439Z,97895.22
2022-11-18T09:11:24.740Z,97890.37
2022-11-18T09:16:42.061Z,97883.28
2022-11-18T09:19:32.077Z,97872.53
2022-11-18T09:21:57.790Z,97877.09
2022-11-18T09:24:25.730Z,97867.84
2022-11-18T09:26:53.750Z,97869.25
2022-11-18T09:29:21.426Z,97876.78
2022-11-18T09:31:49.767Z,97871.34
2022-11-18T09:34:17.753Z,97865.91
2022-11-18T09:36:45.403Z,97860.09
2022-11-18T09:39:13.638Z,97862.13
2022-11-18T09:41:48.086Z,97861.34
2022-11-18T09:44:57.262Z,97862.13
2022-11-18T09:47:30.266Z,97860.66
2022-11-18T09:50:41.696Z,97851.37
2022-11-18T09:53:20.634Z,97849.00
2022-11-18T09:55:50.005Z,97835.19
2022-11-18T09:58:33.359Z,97836.31
2022-11-18T10:01:01.885Z,97837.09
2022-11-18T10:03:31.757Z,97837.56
2022-11-18T10:06:28.626Z,97842.28
2022-11-18T10:09:09.654Z,97841.03
2022-11-18T10:11:41.707Z,97837.28
2022-11-18T10:14:42.023Z,97823.78
2022-11-18T10:17:21.592Z,97811.53
2022-11-18T10:19:55.258Z,97818.59
2022-11-18T10:22:24.586Z,97819.22
2022-11-18T10:24:54.866Z,97813.09
2022-11-18T10:27:24.635Z,97808.50
2022-11-18T10:29:55.741Z,97800.84
2022-11-18T10:32:23.402Z,97803.03
2022-11-18T10:34:53.352Z,97793.75
2022-11-18T10:38:00.667Z,97794.56
2022-11-18T10:40:27.997Z,97789.34
2022-11-18T10:42:56.638Z,97798.59
2022-11-18T10:45:28.355Z,97787.97
2022-11-18T10:48:14.683Z,97787.50
2022-11-18T10:50:51.888Z,97785.19
2022-11-18T10:53:43.090Z,97788.81
2022-11-18T10:56:14.613Z,97777.34
2022-11-18T10:58:48.877Z,97782.37
2022-11-18T11:01:22.321Z,97781.69
2022-11-18T11:04:03.160Z,97773.22
2022-11-18T11:06:34.085Z,97776.19
2022-11-18T11:09:05.668Z,97769.47
2022-11-18T11:11:33.163Z,97770.44
2022-11-18T11:14:35.126Z,97768.25
2022-11-18T11:17:10.470Z,97765.16
2022-11-18T11:19:51.267Z,97765.78
2022-11-18T11:22:19.698Z,97756.00
2022-11-18T11:24:47.361Z,97765.47
2022-11-18T11:30:16.780Z,97763.03
2022-11-18T11:33:02.824Z,97766.22
2022-11-18T11:35:38.015Z,97765.13
2022-11-18T11:38:14.697Z,97760.44
2022-11-18T11:40:54.191Z,97746.63
2022-11-18T11:43:49.623Z,97755.88
2022-11-18T11:46:26.663Z,97757.31
2022-11-18T11:49:12.961Z,97749.59
2022-11-18T11:52:25.632Z,97757.12
2022-11-18T11:55:19.522Z,97752.94
2022-11-18T11:58:07.010Z,97752.13
2022-11-18T12:00:41.122Z,97757.78
2022-11-18T12:03:38.040Z,97759.34
2022-11-18T12:06:09.145Z,97765.13
2022-11-18T12:08:38.184Z,97773.59
2022-11-18T12:11:30.866Z,97762.03
2022-11-18T12:14:17.911Z,97767.53
2022-11-18T12:16:57.433Z,97768.97
2022-11-18T12:19:25.914Z,97765.81
2022-11-18T12:21:58.496Z,97761.25
2022-11-18T12:24:29.429Z,97751.22
2022-11-18T12:27:01.657Z,97744.16
2022-11-18T12:29:41.507Z,97749.50
2022-11-18T12:32:38.935Z,97742.72
2022-11-18T12:35:12.891Z,97738.50
2022-11-18T12:37:46.313Z,97731.44
2022-11-18T12:40:34.391Z,97728.97
2022-11-18T12:43:03.093Z,97732.56
2022-11-18T12:45:37.993Z,97735.97
2022-11-18T12:48:36.656Z,97743.97
2022-11-18T12:51:16.562Z,97734.28
2022-11-18T12:53:46.044Z,97732.25
2022-11-18T12:56:16.943Z,97730.97
2022-11-18T12:58:45.984Z,97733.31
2022-11-18T13:01:17.410Z,97738.66
2022-11-18T13:03:45.162Z,97737.09
2022-11-18T13:06:25.487Z,97733.00
2022-11-18T13:08:58.781Z,97729.56
2022-11-18T13:11:31.231Z,97734.59
2022-11-18T13:13:59.863Z,97730.16
2022-11-18T13:16:27.617Z,97737.22
2022-11-18T13:18:55.334Z,97733.12
2022-11-18T13:21:28.535Z,97739.44
2022-11-18T13:24:01.012Z,97734.28
2022-11-18T13:26:30.939Z,97743.66
2022-11-18T13:29:10.650Z,97740.97
2022-11-18T13:31:50.623Z,97751.03
2022-11-18T13:34:19.314Z,97756.84
2022-11-18T13:36:48.724Z,97756.34
2022-11-18T13:39:26.733Z,97754.47
2022-11-18T13:41:58.627Z,97750.53
2022-11-18T13:44:26.852Z,97755.09
2022-11-18T13:47:03.873Z,97763.56
2022-11-18T13:49:40.755Z,97763.91
2022-11-18T13:52:23.041Z,97774.72
2022-11-18T13:54:52.260Z,97781.06
2022-11-18T13:57:23.461Z,97787.31
2022-11-18T13:59:52.433Z,97783.87
2022-11-18T14:02:20.723Z,97782.94
2022-11-18T14:04:59.171Z,97782.78
2022-11-18T14:07:31.523Z,97787.81
2022-11-18T14:10:01.200Z,97787.97
2022-11-18T14:12:31.540Z,97787.97
2022-11-18T14:15:19.222Z,97791.53
2022-11-18T14:17:57.669Z,97782.94
2022-11-18T14:20:27.454Z,97782.31
2022-11-18T14:23:04.683Z,97778.53
2022-11-18T14:25:37.058Z,97789.66
2022-11-18T14:28:16.826Z,97780.09
2022-11-18T14:30:58.789Z,97775.72
2022-11-18T14:33:34.914Z,97771.31
2022-11-18T14:36:15.341Z,97773.81
2022-11-18T14:39:11.283Z,97784.31
2022-11-18T14:41:39.612Z,97790.75
2022-11-18T14:44:13.175Z,97792.66
2022-11-18T14:46:43.447Z,97786.53
2022-11-18T14:49:14.163Z,97785.91
2022-11-18T14:51:42.217Z,97786.19
2022-11-18T14:54:23.850Z,97790.63
2022-11-18T14:56:55.885Z,97793.13
2022-11-18T14:59:24.099Z,97779.62
2022-11-18T15:01:52.114Z,97784.97
2022-11-18T15:04:20.207Z,97787.47
2022-11-18T15:06:48.170Z,97777.41
2022-11-18T15:09:15.808Z,97787.75
2022-11-18T15:11:44.408Z,97782.78
2022-11-18T15:14:12.094Z,97786.06
2022-11-18T15:16:39.804Z,97787.97
2022-11-18T15:19:14.353Z,97785.91
2022-11-18T15:21:42.748Z,97778.69
2022-11-18T15:24:10.749Z,97776.63
2022-11-18T15:26:47.679Z,97769.91
2022-11-18T15:29:20.735Z,97767.06
2022-11-18T15:31:49.449Z,97769.25
2022-11-18T15:34:19.113Z,97770.06
2022-11-18T15:36:47.021Z,97765.34
2022-11-18T15:39:14.760Z,97772.56
2022-11-18T15:41:43.868Z,97780.25
2022-11-18T15:44:11.715Z,97794.38
2022-11-18T15:46:40.848Z,97795.00
2022-11-18T15:49:12.984Z,97799.56
2022-11-18T15:51:43.800Z,97789.66
2022-11-18T15:54:13.491Z,97794.06
2022-11-18T15:56:41.204Z,97795.47
2022-11-18T15:59:11.250Z,97801.56
2022-11-18T16:01:41.192Z,97795.00
2022-11-18T16:04:11.245Z,97791.06
2022-11-18T16:06:39.410Z,97792.28
2022-11-18T16:09:07.255Z,97795.16
2022-11-18T16:11:35.324Z,97793.41
2022-11-18T16:14:04.508Z,97792.47
2022-11-18T16:16:33.473Z,97793.41
2022-11-18T16:19:03.925Z,97812.53
2022-11-18T16:21:33.585Z,97803.31
2022-11-18T16:24:02.884Z,97816.78
2022-11-18T16:26:31.692Z,97816.50
2022-11-18T16:28:59.929Z,97821.34
2022-11-18T16:31:34.538Z,97812.87
2022-11-18T16:34:10.681Z,97808.81
2022-11-18T16:36:43.154Z,97802.06
2022-11-18T16:39:21.978Z,97809.09
2022-11-18T16:41:50.808Z,97821.97
2022-11-18T16:44:19.225Z,97824.31
2022-11-18T16:46:53.343Z,97830.63
2022-11-18T16:49:23.740Z,97825.28
2022-11-18T16:51:54.474Z,97827.47
2022-11-18T16:54:23.292Z,97822.44
2022-11-18T16:56:53.331Z,97832.31
2022-11-18T16:59:22.967Z,97839.69
2022-11-18T17:01:52.514Z,97840.66
2022-11-18T17:04:21.095Z,97833.09
2022-11-18T17:06:48.924Z,97827.78
2022-11-18T17:09:19.521Z,97835.56
2022-11-18T17:11:47.726Z,97835.13
2022-11-18T17:14:16.007Z,97845.00
2022-11-18T17:16:44.238Z,97849.41
2022-11-18T17:19:14.729Z,97842.13
2022-11-18T17:21:42.799Z,97842.59
2022-11-18T17:24:12.906Z,97846.69
2022-11-18T17:26:41.189Z,97838.38
2022-11-18T17:29:10.841Z,97842.16
2022-11-18T17:31:39.244Z,97842.94
2022-11-18T17:34:10.161Z,97845.94
2022-11-18T17:36:38.325Z,97846.72
2022-11-18T17:39:06.726Z,97845.97
2022-11-18T17:41:34.474Z,97858.59
2022-11-18T17:44:04.548Z,97864.75
2022-11-18T17:46:37.514Z,97871.53
2022-11-18T17:49:12.258Z,97870.41
2022-11-18T17:51:40.970Z,97878.75
2022-11-18T17:54:09.764Z,97874.41
2022-11-18T17:56:37.758Z,97877.84
2022-11-18T17:59:05.790Z,97875.66
2022-11-18T18:01:34.077Z,97878.19
2022-11-18T18:04:02.150Z,97883.38
2022-11-18T18:06:30.105Z,97895.44
2022-11-18T18:08:58.429Z,97899.53
2022-11-18T18:11:27.400Z,97898.47
2022-11-18T18:13:55.549Z,97901.44
2022-11-18T18:16:23.797Z,97899.88
2022-11-18T18:18:52.269Z,97915.56
2022-11-18T18:21:20.101Z,97911.31
2022-11-18T18:23:47.871Z,97914.94
2022-11-18T18:26:15.984Z,97915.41
2022-11-18T18:28:43.794Z,97914.63
2022-11-18T18:31:13.493Z,97912.91
2022-11-18T18:33:41.914Z,97911.63
2022-11-18T18:36:12.670Z,97921.19
2022-11-18T18:38:41.528Z,97920.91
2022-11-18T18:41:12.316Z,97920.28
2022-11-18T18:43:40.400Z,97923.56
2022-11-18T18:46:14.519Z,97926.22
2022-11-18T18:48:43.232Z,97930.16
2022-11-18T18:51:11.246Z,97934.09
2022-11-18T18:53:39.241Z,97937.38
2022-11-18T18:56:07.641Z,97940.38
2022-11-18T18:58:36.246Z,97944.56
2022-11-18T19:01:09.598Z,97945.34
2022-11-18T19:03:40.399Z,97951.31
2022-11-18T19:06:48.676Z,97951.84
2022-11-18T19:09:05.252Z,97946.81
2022-11-18T19:11:33.799Z,97950.56
2022-11-18T19:14:09.858Z,97959.69
2022-11-18T19:16:38.414Z,97958.87
2022-11-18T19:19:09.533Z,97962.81
2022-11-18T19:21:38.798Z,97963.28
2022-11-18T19:24:22.875Z,97962.22
2022-11-18T19:26:55.005Z,97973.06
2022-11-18T19:29:25.573Z,97976.81
2022-11-18T19:31:53.674Z,97982.91
2022-11-18T19:34:21.863Z,97985.12
2022-11-18T19:36:49.511Z,97994.53
2022-11-18T19:39:17.518Z,97991.50
2022-11-18T19:41:45.757Z,98002.03
2022-11-18T19:44:13.507Z,97999.97
2022-11-18T19:46:41.123Z,98004.69
2022-11-18T19:49:09.468Z,98006.25
2022-11-18T19:51:37.514Z,98010.34
2022-11-18T19:54:05.383Z,98012.22
2022-11-18T19:56:33.883Z,98010.50
2022-11-18T19:59:01.796Z,98023.16
2022-11-18T20:01:29.681Z,98013.94
2022-11-18T20:03:59.299Z,98030.56
2022-11-18T20:06:30.170Z,98029.94
2022-11-18T20:08:58.266Z,98040.47
2022-11-18T20:11:25.931Z,98046.25
2022-11-18T20:13:53.846Z,98045.47
2022-11-18T20:16:24.608Z,98044.75
2022-11-18T20:19:07.834Z,98053.66
2022-11-18T20:21:37.696Z,98052.19
2022-11-18T20:24:08.190Z,98063.31
2022-11-18T20:26:40.158Z,98066.09
2022-11-18T20:29:08.320Z,98069.56
2022-11-18T20:31:36.671Z,98083.94
2022-11-18T20:34:05.982Z,98088.00
2022-11-18T20:36:36.299Z,98086.59
2022-11-18T20:39:10.874Z,98098.38
2022-11-18T20:41:39.241Z,98100.34
2022-11-18T20:44:07.174Z,98107.78
2022-11-18T20:46:35.109Z,98108.41
2022-11-18T20:49:03.306Z,98115.16
2022-11-18T20:51:30.915Z,98125.22
2022-11-18T20:53:58.760Z,98117.44
2022-11-18T20:56:27.704Z,98112.78
2022-11-18T20:58:56.997Z,98119.72
2022-11-18T21:01:27.972Z,98122.66
2022-11-18T21:03:56.918Z,98134.75
2022-11-18T21:06:29.514Z,98146.19
2022-11-18T21:09:02.888Z,98155.16
2022-11-18T21:11:34.363Z,98159.06
2022-11-18T21:14:03.537Z,98167.84
2022-11-18T21:16:31.255Z,98168.28
2022-11-18T21:19:01.255Z,98186.91
2022-11-18T21:21:29.414Z,98187.50
2022-11-18T21:23:58.457Z,98196.47
2022-11-18T21:26:27.824Z,98199.09
2022-11-18T21:28:57.880Z,98200.59
2022-11-18T21:31:26.580Z,98210.66
2022-11-18T21:33:54.895Z,98212.97
2022-11-18T21:36:24.203Z,98210.72
2022-11-18T21:38:51.890Z,98216.59
2022-11-18T21:41:19.976Z,98211.34
2022-11-18T21:44:04.921Z,98215.88
2022-11-18T21:46:37.814Z,98220.03
2022-11-18T21:49:08.335Z,98223.50
2022-11-18T21:51:36.436Z,98234.97
2022-11-18T21:54:04.540Z,98235.28
2022-11-18T21:56:32.844Z,98238.63
2022-11-18T21:59:01.837Z,98237.34
2022-11-18T22:01:32.192Z,98238.16
2022-11-18T22:04:01.850Z,98243.28
2022-11-18T22:06:30.521Z,98245.47
2022-11-18T22:08:58.301Z,98247.72
2022-11-18T22:11:26.191Z,98244.78
2022-11-18T22:13:53.896Z,98254.94
2022-11-18T22:16:23.159Z,98257.22
2022-11-18T22:18:58.152Z,98267.47
2022-11-18T22:21:28.940Z,98267.22
2022-11-18T22:24:00.608Z,98271.13
2022-11-18T22:26:29.037Z,98278.06
2022-11-18T22:28:58.027Z,98269.53
2022-11-18T22:31:27.839Z,98272.59
2022-11-18T22:33:57.108Z,98286.31
2022-11-18T22:36:26.302Z,98287.53
2022-11-18T22:38:54.819Z,98289.94
2022-11-18T22:41:27.297Z,98288.75
2022-11-18T22:43:55.208Z,98302.37
2022-11-18T22:46:22.814Z,98302.37
2022-11-18T22:48:51.227Z,98303.06
2022-11-18T22:51:19.235Z,98307.06
2022-11-18T22:53:46.910Z,98307.22
2022-11-18T22:56:15.144Z,98314.22
2022-11-18T22:58:43.383Z,98305.78
2022-11-18T23:01:12.972Z,98311.72
2022-11-18T23:03:41.045Z,98311.72
2022-11-18T23:06:09.383Z,98316.63
2022-11-18T23:08:38.629Z,98322.44
2022-11-18T23:11:12.912Z,98314.25
2022-11-18T23:13:41.234Z,98335.06
2022-11-18T23:16:08.793Z,98327.38
2022-11-18T23:18:36.645Z,98328.09
2022-11-18T23:21:05.068Z,98325.72
2022-11-18T23:23:32.761Z,98327.16
2022-11-18T23:26:12.100Z,98332.00
2022-11-18T23:28:40.375Z,98339.50
2022-11-18T23:31:13.294Z,98334.63
2022-11-18T23:33:41.855Z,98334.03
2022-11-18T23:36:11.498Z,98343.41
2022-11-18T23:38:39.306Z,98345.72
2022-11-18T23:41:10.043Z,98346.09
2022-11-18T23:43:38.030Z,98351.09
2022-11-18T23:46:07.117Z,98361.13
2022-11-18T23:48:37.422Z,98370.63
2022-11-18T23:51:09.682Z,98363.13
2022-11-18T23:53:38.859Z,98355.50
2022-11-18T23:56:11.964Z,98343.53
2022-11-18T23:58:41.089Z,98347.34
